createdAt,value
2022-08-31T00:00:10.983Z,19.30
2022-08-31T00:02:57.397Z,19.25
2022-08-31T00:05:24.352Z,19.14
2022-08-31T00:07:52.686Z,19.04
2022-08-31T00:10:32.222Z,18.89
2022-08-31T00:13:06.876Z,18.76
2022-08-31T00:15:36.538Z,18.79
2022-08-31T00:18:04.487Z,18.90
2022-08-31T00:20:33.955Z,18.90
2022-08-31T00:23:10.337Z,18.83
2022-08-31T00:25:38.913Z,18.85
2022-08-31T00:28:06.953Z,18.84
2022-08-31T00:30:34.229Z,18.88
2022-08-31T00:33:01.538Z,18.89
2022-08-31T00:35:29.848Z,18.81
2022-08-31T00:37:57.717Z,18.78
2022-08-31T00:40:25.366Z,18.79
2022-08-31T00:42:52.800Z,18.80
2022-08-31T00:45:20.226Z,18.77
2022-08-31T00:47:47.184Z,18.77
2022-08-31T00:50:16.538Z,18.73
2022-08-31T00:52:47.071Z,18.72
2022-08-31T00:55:28.551Z,18.67
2022-08-31T00:57:58.220Z,18.68
2022-08-31T01:00:26.970Z,18.72
2022-08-31T01:02:55.960Z,18.72
2022-08-31T01:05:23.544Z,18.65
2022-08-31T01:07:50.982Z,18.61
2022-08-31T01:10:20.985Z,18.57
2022-08-31T01:12:50.629Z,18.49
2022-08-31T01:15:18.377Z,18.45
2022-08-31T01:17:46.983Z,18.38
2022-08-31T01:20:36.766Z,18.45
2022-08-31T01:23:34.559Z,18.42
2022-08-31T01:26:03.505Z,18.35
2022-08-31T01:28:30.686Z,18.35
2022-08-31T01:31:02.681Z,18.31
2022-08-31T01:33:30.767Z,18.30
2022-08-31T01:35:58.111Z,18.26
2022-08-31T01:38:25.767Z,18.26
2022-08-31T01:40:56.423Z,18.20
2022-08-31T01:43:24.091Z,17.92
2022-08-31T01:45:51.564Z,17.80
2022-08-31T01:48:18.834Z,17.81
2022-08-31T01:50:45.910Z,17.80
2022-08-31T01:53:12.785Z,17.63
2022-08-31T01:55:39.823Z,17.84
2022-08-31T01:58:07.630Z,17.73
2022-08-31T02:00:34.996Z,17.65
2022-08-31T02:03:03.483Z,17.66
2022-08-31T02:05:30.410Z,17.60
2022-08-31T02:07:57.568Z,17.59
2022-08-31T02:10:25.376Z,17.74
2022-08-31T02:12:52.441Z,17.91
2022-08-31T02:15:19.853Z,18.00
2022-08-31T02:17:47.185Z,18.00
2022-08-31T02:20:20.304Z,18.00
2022-08-31T02:22:48.719Z,17.89
2022-08-31T02:25:17.316Z,17.92
2022-08-31T02:27:44.194Z,18.04
2022-08-31T02:30:14.829Z,18.05
2022-08-31T02:32:41.777Z,18.04
2022-08-31T02:35:09.916Z,18.02
2022-08-31T02:37:37.129Z,18.07
2022-08-31T02:40:08.412Z,18.09
2022-08-31T02:42:53.919Z,18.16
2022-08-31T02:45:22.102Z,18.25
2022-08-31T02:47:48.946Z,18.28
2022-08-31T02:50:15.926Z,18.27
2022-08-31T02:52:42.806Z,18.31
2022-08-31T02:55:09.774Z,18.33
2022-08-31T02:57:36.561Z,18.38
2022-08-31T03:00:05.401Z,18.37
2022-08-31T03:02:33.245Z,18.37
2022-08-31T03:05:08.124Z,18.41
2022-08-31T03:07:35.622Z,18.41
2022-08-31T03:10:04.123Z,18.40
2022-08-31T03:12:31.055Z,18.32
2022-08-31T03:14:57.927Z,18.39
2022-08-31T03:17:24.769Z,18.40
2022-08-31T03:19:51.589Z,18.42
2022-08-31T03:22:18.430Z,18.40
2022-08-31T03:24:48.109Z,18.42
2022-08-31T03:27:14.914Z,18.46
2022-08-31T03:29:42.490Z,18.50
2022-08-31T03:32:09.664Z,18.53
2022-08-31T03:34:36.769Z,18.55
2022-08-31T03:37:04.172Z,18.57
2022-08-31T03:39:31.181Z,18.60
2022-08-31T03:41:58.035Z,18.59
2022-08-31T03:44:25.093Z,18.60
2022-08-31T03:46:55.422Z,18.62
2022-08-31T03:49:23.411Z,18.59
2022-08-31T03:51:50.329Z,18.55
2022-08-31T03:54:18.646Z,18.53
2022-08-31T03:56:46.828Z,18.47
2022-08-31T03:59:14.182Z,18.44
2022-08-31T04:01:42.856Z,18.38
2022-08-31T04:04:12.783Z,18.42
2022-08-31T04:06:40.873Z,18.33
2022-08-31T04:09:08.114Z,18.29
2022-08-31T04:11:45.091Z,18.20
2022-08-31T04:14:12.733Z,18.18
2022-08-31T04:16:43.842Z,18.09
2022-08-31T04:19:11.682Z,18.01
2022-08-31T04:21:41.171Z,18.02
2022-08-31T04:24:11.973Z,18.03
2022-08-31T04:26:40.844Z,17.61
2022-08-31T04:29:12.995Z,17.44
2022-08-31T04:31:40.746Z,17.32
2022-08-31T04:34:08.076Z,17.29
2022-08-31T04:36:35.321Z,17.32
2022-08-31T04:39:04.285Z,17.31
2022-08-31T04:41:33.605Z,17.24
2022-08-31T04:44:02.312Z,17.29
2022-08-31T04:46:29.298Z,17.52
2022-08-31T04:48:57.085Z,17.69
2022-08-31T04:51:31.339Z,18.14
2022-08-31T04:53:58.413Z,18.14
2022-08-31T04:56:28.189Z,18.42
2022-08-31T04:58:58.639Z,18.84
2022-08-31T05:01:28.399Z,19.61
2022-08-31T05:04:04.224Z,20.30
2022-08-31T05:06:32.557Z,20.28
2022-08-31T05:09:02.624Z,21.19
2022-08-31T05:11:30.285Z,21.98
2022-08-31T05:13:58.081Z,22.76
2022-08-31T05:16:25.136Z,22.40
2022-08-31T05:18:52.378Z,22.62
2022-08-31T05:21:25.616Z,22.95
2022-08-31T05:23:53.005Z,22.82
2022-08-31T05:26:26.507Z,22.88
2022-08-31T05:28:55.248Z,22.19
2022-08-31T05:31:23.339Z,21.49
2022-08-31T05:33:50.524Z,20.97
2022-08-31T05:36:17.719Z,20.89
2022-08-31T05:38:44.653Z,20.86
2022-08-31T05:41:11.582Z,21.01
2022-08-31T05:43:39.046Z,20.97
2022-08-31T05:46:10.300Z,21.36
2022-08-31T05:48:38.169Z,21.49
2022-08-31T05:51:11.503Z,22.02
2022-08-31T05:53:40.080Z,22.07
2022-08-31T05:56:12.584Z,22.12
2022-08-31T05:58:41.386Z,22.33
2022-08-31T06:01:20.700Z,22.08
2022-08-31T06:03:48.003Z,22.27
2022-08-31T06:06:15.609Z,22.50
2022-08-31T06:08:43.183Z,22.41
2022-08-31T06:11:19.460Z,22.75
2022-08-31T06:13:48.403Z,23.03
2022-08-31T06:16:17.601Z,23.19
2022-08-31T06:18:51.191Z,23.11
2022-08-31T06:21:23.580Z,23.38
2022-08-31T06:23:52.013Z,23.53
2022-08-31T06:26:21.337Z,23.64
2022-08-31T06:28:51.186Z,23.69
2022-08-31T06:31:30.561Z,23.68
2022-08-31T06:33:58.132Z,23.82
2022-08-31T06:36:28.094Z,23.76
2022-08-31T06:39:00.111Z,24.14
2022-08-31T06:41:33.235Z,24.28
2022-08-31T06:44:05.742Z,23.92
2022-08-31T06:46:34.643Z,24.30
2022-08-31T06:49:01.952Z,24.10
2022-08-31T06:51:29.413Z,24.14
2022-08-31T06:54:04.398Z,24.23
2022-08-31T06:56:43.512Z,24.23
2022-08-31T06:59:10.802Z,24.37
2022-08-31T07:01:38.213Z,24.80
2022-08-31T07:04:10.649Z,24.48
2022-08-31T07:06:43.211Z,24.43
2022-08-31T07:09:12.824Z,25.01
2022-08-31T07:11:44.704Z,25.19
2022-08-31T07:14:16.740Z,24.57
2022-08-31T07:16:44.386Z,24.64
2022-08-31T07:19:12.674Z,24.70
2022-08-31T07:22:00.392Z,25.05
2022-08-31T07:24:30.477Z,25.27
2022-08-31T07:27:00.248Z,25.19
2022-08-31T07:29:30.485Z,25.34
2022-08-31T07:31:59.301Z,25.72
2022-08-31T07:34:30.937Z,25.89
2022-08-31T07:37:18.068Z,26.33
2022-08-31T07:40:07.436Z,26.56
2022-08-31T07:42:40.422Z,26.63
2022-08-31T07:45:12.281Z,26.98
2022-08-31T07:47:46.121Z,26.63
2022-08-31T07:50:14.949Z,26.68
2022-08-31T07:52:47.484Z,26.22
2022-08-31T07:55:16.476Z,26.53
2022-08-31T07:57:44.262Z,25.56
2022-08-31T08:00:21.150Z,25.54
2022-08-31T08:02:50.948Z,26.17
2022-08-31T08:05:27.340Z,25.85
2022-08-31T08:07:58.429Z,25.93
2022-08-31T08:10:26.320Z,26.00
2022-08-31T08:13:04.861Z,25.87
2022-08-31T08:15:35.427Z,26.07
2022-08-31T08:18:04.559Z,25.93
2022-08-31T08:20:37.532Z,26.18
2022-08-31T08:23:14.384Z,26.32
2022-08-31T08:25:43.693Z,26.26
2022-08-31T08:28:38.058Z,26.22
2022-08-31T08:31:06.328Z,26.32
2022-08-31T08:33:35.131Z,25.98
2022-08-31T08:36:07.830Z,25.59
2022-08-31T08:38:38.930Z,26.12
2022-08-31T08:41:13.389Z,26.68
2022-08-31T08:43:43.810Z,27.05
2022-08-31T08:46:31.721Z,27.15
2022-08-31T08:49:07.120Z,27.61
2022-08-31T08:51:38.369Z,26.92
2022-08-31T08:54:11.587Z,26.56
2022-08-31T08:56:42.180Z,27.39
2022-08-31T08:59:15.842Z,27.71
2022-08-31T09:01:48.443Z,28.12
2022-08-31T09:04:17.171Z,27.84
2022-08-31T09:07:11.963Z,28.06
2022-08-31T09:10:00.209Z,28.83
2022-08-31T09:13:07.108Z,28.66
2022-08-31T09:15:39.803Z,28.35
2022-08-31T09:18:34.467Z,27.95
2022-08-31T09:21:20.794Z,27.41
2022-08-31T09:23:53.275Z,27.69
2022-08-31T09:26:25.997Z,28.14
2022-08-31T09:28:53.001Z,28.45
2022-08-31T09:31:39.276Z,27.91
2022-08-31T09:34:13.866Z,27.69
2022-08-31T09:36:41.410Z,28.47
2022-08-31T09:39:17.158Z,27.82
2022-08-31T09:41:45.326Z,28.03
2022-08-31T09:44:34.464Z,28.12
2022-08-31T09:47:05.952Z,28.79
2022-08-31T09:49:36.887Z,28.78
2022-08-31T09:52:20.114Z,27.35
2022-08-31T09:55:13.780Z,28.49
2022-08-31T09:57:54.161Z,28.58
2022-08-31T10:00:35.278Z,28.73
2022-08-31T10:03:23.558Z,28.43
2022-08-31T10:05:52.274Z,28.02
2022-08-31T10:08:57.079Z,27.68
2022-08-31T10:11:27.515Z,28.80
2022-08-31T10:14:04.539Z,29.34
2022-08-31T10:16:42.687Z,29.63
2022-08-31T10:19:13.408Z,29.57
2022-08-31T10:22:25.695Z,30.19
2022-08-31T10:25:22.481Z,30.55
2022-08-31T10:28:19.485Z,29.95
2022-08-31T10:30:59.986Z,30.16
2022-08-31T10:34:07.125Z,30.12
2022-08-31T10:36:38.091Z,28.69
2022-08-31T10:39:16.434Z,29.38
2022-08-31T10:41:47.535Z,28.48
2022-08-31T10:44:36.395Z,28.07
2022-08-31T10:47:05.693Z,29.37
2022-08-31T10:49:39.162Z,29.53
2022-08-31T10:52:29.297Z,29.21
2022-08-31T10:55:25.673Z,28.47
2022-08-31T10:58:01.417Z,28.53
2022-08-31T11:00:48.892Z,28.00
2022-08-31T11:03:21.576Z,28.20
2022-08-31T11:05:52.191Z,28.42
2022-08-31T11:09:06.076Z,28.62
2022-08-31T11:11:43.690Z,28.56
2022-08-31T11:14:14.845Z,28.14
2022-08-31T11:17:19.306Z,28.40
2022-08-31T11:20:00.722Z,29.16
2022-08-31T11:22:56.513Z,29.28
2022-08-31T11:25:47.468Z,29.51
2022-08-31T11:28:29.074Z,29.70
2022-08-31T11:30:56.296Z,30.13
2022-08-31T11:33:28.499Z,29.37
2022-08-31T11:36:10.158Z,29.97
2022-08-31T11:38:54.626Z,29.93
2022-08-31T11:41:46.608Z,29.85
2022-08-31T11:44:36.987Z,29.02
2022-08-31T11:47:06.890Z,29.13
2022-08-31T11:49:41.237Z,29.53
2022-08-31T11:52:16.217Z,30.09
2022-08-31T11:54:50.535Z,30.68
2022-08-31T11:57:24.786Z,30.71
2022-08-31T11:59:53.580Z,30.30
2022-08-31T12:02:20.516Z,29.93
2022-08-31T12:04:53.479Z,28.99
2022-08-31T12:07:30.006Z,29.71
2022-08-31T12:10:27.710Z,29.26
2022-08-31T12:13:25.289Z,29.97
2022-08-31T12:16:05.004Z,29.47
2022-08-31T12:18:34.845Z,30.01
2022-08-31T12:21:23.479Z,29.98
2022-08-31T12:23:59.282Z,30.65
2022-08-31T12:26:44.908Z,31.10
2022-08-31T12:29:22.726Z,31.25
2022-08-31T12:32:17.348Z,29.83
2022-08-31T12:35:10.464Z,29.13
2022-08-31T12:37:38.606Z,29.45
2022-08-31T12:40:07.168Z,29.40
2022-08-31T12:42:36.574Z,29.67
2022-08-31T12:45:04.337Z,29.06
2022-08-31T12:47:49.401Z,29.56
2022-08-31T12:50:35.620Z,29.56
2022-08-31T12:53:14.594Z,30.32
2022-08-31T12:55:47.255Z,30.25
2022-08-31T12:58:28.968Z,30.30
2022-08-31T13:01:13.960Z,30.60
2022-08-31T13:03:46.864Z,30.72
2022-08-31T13:06:30.619Z,30.26
2022-08-31T13:08:59.117Z,29.19
2022-08-31T13:11:40.819Z,29.32
2022-08-31T13:14:15.747Z,29.42
2022-08-31T13:16:49.267Z,29.42
2022-08-31T13:19:29.485Z,29.42
2022-08-31T13:22:12.165Z,28.84
2022-08-31T13:24:41.398Z,28.86
2022-08-31T13:27:18.462Z,29.10
2022-08-31T13:29:46.495Z,28.81
2022-08-31T13:32:33.868Z,29.36
2022-08-31T13:35:08.473Z,28.91
2022-08-31T13:37:40.089Z,28.40
2022-08-31T13:40:11.376Z,29.01
2022-08-31T13:42:58.619Z,28.65
2022-08-31T13:45:27.086Z,28.81
2022-08-31T13:47:58.178Z,28.83
2022-08-31T13:50:32.951Z,28.84
2022-08-31T13:53:26.401Z,29.10
2022-08-31T13:55:50.280Z,28.36
2022-08-31T13:58:31.745Z,28.33
2022-08-31T14:01:40.137Z,28.92
2022-08-31T14:04:54.593Z,28.98
2022-08-31T14:07:26.394Z,28.79
2022-08-31T14:10:14.188Z,28.40
2022-08-31T14:12:57.809Z,28.13
2022-08-31T14:15:53.547Z,27.97
2022-08-31T14:18:35.601Z,28.38
2022-08-31T14:21:19.878Z,28.73
2022-08-31T14:23:52.637Z,28.47
2022-08-31T14:26:22.860Z,28.42
2022-08-31T14:28:53.382Z,28.48
2022-08-31T14:31:38.664Z,28.66
2022-08-31T14:34:22.085Z,28.80
2022-08-31T14:36:58.159Z,28.67
2022-08-31T14:39:31.314Z,28.69
2022-08-31T14:42:21.041Z,28.53
2022-08-31T14:44:56.818Z,28.56
2022-08-31T14:47:25.616Z,28.55
2022-08-31T14:49:52.583Z,28.49
2022-08-31T14:52:19.695Z,28.51
2022-08-31T14:54:47.714Z,28.29
2022-08-31T14:57:19.384Z,28.35
2022-08-31T14:59:47.228Z,28.44
2022-08-31T15:02:21.285Z,28.27
2022-08-31T15:04:48.605Z,28.29
2022-08-31T15:07:16.709Z,28.08
2022-08-31T15:09:46.780Z,28.17
2022-08-31T15:12:15.347Z,27.96
2022-08-31T15:14:45.102Z,27.83
2022-08-31T15:17:18.787Z,27.63
2022-08-31T15:19:50.434Z,27.62
2022-08-31T15:22:18.252Z,27.69
2022-08-31T15:24:45.595Z,27.66
2022-08-31T15:27:15.126Z,27.39
2022-08-31T15:29:47.355Z,27.04
2022-08-31T15:32:18.547Z,27.06
2022-08-31T15:34:53.540Z,27.03
2022-08-31T15:37:21.515Z,26.98
2022-08-31T15:39:50.679Z,27.03
2022-08-31T15:42:21.613Z,27.08
2022-08-31T15:44:56.018Z,26.94
2022-08-31T15:47:55.452Z,27.03
2022-08-31T15:50:27.078Z,26.84
2022-08-31T15:53:01.605Z,26.65
2022-08-31T15:55:29.999Z,26.60
2022-08-31T15:57:59.282Z,26.60
2022-08-31T16:00:32.414Z,26.55
2022-08-31T16:03:02.461Z,26.52
2022-08-31T16:05:38.898Z,26.49
2022-08-31T16:08:08.622Z,26.55
2022-08-31T16:10:37.176Z,26.39
2022-08-31T16:13:07.138Z,26.42
2022-08-31T16:15:34.520Z,26.12
2022-08-31T16:18:02.937Z,26.28
2022-08-31T16:20:30.188Z,26.18
2022-08-31T16:22:58.744Z,26.04
2022-08-31T16:25:29.279Z,25.98
2022-08-31T16:27:57.794Z,25.99
2022-08-31T16:30:24.702Z,25.91
2022-08-31T16:32:52.526Z,25.91
2022-08-31T16:35:19.501Z,25.89
2022-08-31T16:37:46.622Z,25.80
2022-08-31T16:40:14.284Z,25.86
2022-08-31T16:42:43.611Z,25.75
2022-08-31T16:45:11.527Z,25.68
2022-08-31T16:47:39.662Z,25.68
2022-08-31T16:50:08.811Z,25.65
2022-08-31T16:52:36.142Z,25.61
2022-08-31T16:55:03.260Z,25.63
2022-08-31T16:57:32.580Z,25.62
2022-08-31T17:00:00.216Z,25.50
2022-08-31T17:02:27.519Z,25.48
2022-08-31T17:04:54.839Z,25.44
2022-08-31T17:07:24.106Z,25.37
2022-08-31T17:09:55.577Z,25.32
2022-08-31T17:12:27.375Z,25.17
2022-08-31T17:14:54.515Z,25.07
2022-08-31T17:17:24.937Z,24.94
2022-08-31T17:19:56.194Z,24.98
2022-08-31T17:22:31.635Z,24.97
2022-08-31T17:25:04.120Z,24.98
2022-08-31T17:27:36.209Z,24.96
2022-08-31T17:30:07.150Z,24.90
2022-08-31T17:32:42.622Z,24.85
2022-08-31T17:35:17.450Z,24.68
2022-08-31T17:37:44.397Z,24.68
2022-08-31T17:40:14.003Z,24.68
2022-08-31T17:42:41.309Z,24.61
2022-08-31T17:45:09.876Z,24.57
2022-08-31T17:47:36.710Z,24.51
2022-08-31T17:50:04.582Z,24.26
2022-08-31T17:52:31.642Z,24.26
2022-08-31T17:55:00.369Z,24.22
2022-08-31T17:57:28.076Z,24.13
2022-08-31T17:59:55.248Z,24.11
2022-08-31T18:02:31.178Z,24.02
2022-08-31T18:04:58.430Z,23.95
2022-08-31T18:07:25.441Z,23.73
2022-08-31T18:09:53.793Z,23.69
2022-08-31T18:12:22.196Z,23.64
2022-08-31T18:14:49.730Z,23.51
2022-08-31T18:17:17.154Z,23.41
2022-08-31T18:19:47.200Z,23.21
2022-08-31T18:22:14.714Z,23.29
2022-08-31T18:24:42.783Z,23.33
2022-08-31T18:27:11.746Z,23.29
2022-08-31T18:29:39.526Z,23.27
2022-08-31T18:32:08.130Z,23.27
2022-08-31T18:34:40.015Z,23.21
2022-08-31T18:37:07.834Z,23.21
2022-08-31T18:39:53.236Z,23.17
2022-08-31T18:42:39.959Z,23.17
2022-08-31T18:45:19.233Z,23.15
2022-08-31T18:48:20.760Z,23.08
2022-08-31T18:50:42.428Z,23.09
2022-08-31T18:53:14.898Z,22.82
2022-08-31T18:55:42.612Z,22.81
2022-08-31T18:58:10.042Z,22.73
2022-08-31T19:00:37.446Z,22.75
2022-08-31T19:03:05.043Z,22.64
2022-08-31T19:05:32.669Z,22.67
2022-08-31T19:08:00.496Z,22.64
2022-08-31T19:10:27.620Z,22.53
2022-08-31T19:12:55.904Z,22.57
2022-08-31T19:15:25.434Z,22.41
2022-08-31T19:17:59.105Z,22.49
2022-08-31T19:20:28.981Z,22.48
2022-08-31T19:22:56.098Z,22.53
2022-08-31T19:25:24.415Z,22.56
2022-08-31T19:27:52.013Z,22.43
2022-08-31T19:30:25.992Z,22.48
2022-08-31T19:32:56.219Z,22.53
2022-08-31T19:35:25.888Z,22.47
2022-08-31T19:37:53.729Z,22.35
2022-08-31T19:40:21.404Z,22.38
2022-08-31T19:45:45.057Z,22.39
2022-08-31T19:48:12.827Z,22.20
2022-08-31T19:50:42.125Z,22.19
2022-08-31T19:53:12.108Z,22.20
2022-08-31T19:55:51.318Z,22.17
2022-08-31T19:58:22.087Z,22.17
2022-08-31T20:00:49.956Z,21.96
2022-08-31T20:03:19.294Z,22.05
2022-08-31T20:05:46.750Z,22.10
2022-08-31T20:08:13.830Z,22.11
2022-08-31T20:10:42.573Z,22.19
2022-08-31T20:13:10.040Z,22.10
2022-08-31T20:15:45.685Z,21.92
2022-08-31T20:18:12.969Z,22.10
2022-08-31T20:20:45.284Z,22.05
2022-08-31T20:23:17.115Z,21.92
2022-08-31T20:25:45.794Z,21.58
2022-08-31T20:28:13.630Z,21.59
2022-08-31T20:30:41.544Z,21.54
2022-08-31T20:33:09.672Z,21.55
2022-08-31T20:35:41.480Z,21.54
2022-08-31T20:38:11.996Z,21.44
2022-08-31T20:40:39.473Z,21.31
2022-08-31T20:43:10.893Z,21.36
2022-08-31T20:45:38.872Z,21.32
2022-08-31T20:48:24.649Z,21.12
2022-08-31T20:50:51.588Z,21.06
2022-08-31T20:53:26.435Z,21.02
2022-08-31T20:56:06.940Z,21.03
2022-08-31T20:58:33.842Z,21.00
2022-08-31T21:01:10.138Z,21.05
2022-08-31T21:03:37.324Z,21.05
2022-08-31T21:06:13.737Z,21.06
2022-08-31T21:08:42.613Z,21.19
2022-08-31T21:11:12.252Z,21.01
2022-08-31T21:13:39.307Z,20.94
2022-08-31T21:16:08.887Z,20.97
2022-08-31T21:18:37.005Z,20.97
2022-08-31T21:21:06.599Z,20.92
2022-08-31T21:23:34.037Z,20.91
2022-08-31T21:26:01.561Z,20.92
2022-08-31T21:28:28.614Z,20.85
2022-08-31T21:31:15.468Z,20.79
2022-08-31T21:33:45.113Z,20.78
2022-08-31T21:36:15.250Z,20.85
2022-08-31T21:38:43.497Z,20.84
2022-08-31T21:41:12.667Z,20.79
2022-08-31T21:43:40.364Z,20.80
2022-08-31T21:46:12.770Z,20.75
2022-08-31T21:48:41.255Z,20.72
2022-08-31T21:51:17.823Z,20.74
2022-08-31T21:53:47.818Z,20.80
2022-08-31T21:56:16.096Z,20.83
2022-08-31T21:58:43.492Z,20.80
2022-08-31T22:01:13.334Z,20.75
2022-08-31T22:03:40.801Z,20.79
2022-08-31T22:06:09.614Z,20.86
2022-08-31T22:08:38.414Z,20.73
2022-08-31T22:11:13.492Z,20.68
2022-08-31T22:13:43.907Z,20.70
2022-08-31T22:16:15.198Z,20.69
2022-08-31T22:19:06.402Z,20.64
2022-08-31T22:21:34.991Z,20.64
2022-08-31T22:24:07.433Z,20.56
2022-08-31T22:26:37.124Z,20.57
2022-08-31T22:29:06.142Z,20.55
2022-08-31T22:31:36.705Z,20.73
2022-08-31T22:34:04.574Z,20.56
2022-08-31T22:36:32.514Z,20.50
2022-08-31T22:39:05.539Z,20.56
2022-08-31T22:41:33.547Z,20.48
2022-08-31T22:44:01.109Z,20.26
2022-08-31T22:46:28.432Z,20.37
2022-08-31T22:48:55.776Z,20.37
2022-08-31T22:51:23.240Z,20.34
2022-08-31T22:53:51.713Z,20.26
2022-08-31T22:56:25.983Z,20.24
2022-08-31T22:58:57.994Z,20.32
2022-08-31T23:01:36.345Z,20.35
2022-08-31T23:04:06.760Z,20.17
2022-08-31T23:06:35.553Z,20.23
2022-08-31T23:09:04.292Z,20.25
2022-08-31T23:11:31.200Z,20.38
2022-08-31T23:13:59.748Z,20.20
2022-08-31T23:16:33.354Z,20.25
2022-08-31T23:19:04.089Z,20.14
2022-08-31T23:21:34.126Z,20.20
2022-08-31T23:24:02.053Z,20.06
2022-08-31T23:26:30.334Z,19.80
2022-08-31T23:28:59.329Z,19.73
2022-08-31T23:31:27.613Z,19.40
2022-08-31T23:33:54.567Z,19.47
2022-08-31T23:36:26.237Z,19.50
2022-08-31T23:38:54.806Z,19.33
2022-08-31T23:41:30.123Z,19.17
2022-08-31T23:43:59.263Z,19.16
2022-08-31T23:46:26.279Z,19.04
2022-08-31T23:48:53.964Z,18.78
2022-08-31T23:51:22.409Z,18.69
2022-08-31T23:53:53.986Z,18.78
2022-08-31T23:56:27.557Z,18.86
2022-08-31T23:58:54.669Z,18.86
